KILG/ILG METAR and TAF weather

Enter ICAO airport designator
Station Type Date Time Source
KILG METAR 2018/12/15 20:51 UTC NOAA

KILG 152051Z 05018G22KT 6SM BR OVC006 11/10 A3001 RMK AO2 SLP162 60001 T01060100 55013


Station Type Date Time Source
KILG Decoded METAR 2018/12/15 20:51 UTC NOAA

WILMINGTON NEW CASTLE CO, DE, United States (KILG) 39-40N 075-36W 28M
Dec 15, 2018 - 03:51 PM EST / 2018.12.15 2051 UTC
Wind: from the NE (050 degrees) at 21 MPH (18 KT) gusting to 25 MPH (22 KT):0
Visibility: 6 mile(s):0
Sky conditions: overcast
Weather: mist
Temperature: 51.1 F (10.6 C)
Dew Point: 50.0 F (10.0 C)
Relative Humidity: 96%
Pressure (altimeter): 30.01 in. Hg (1016 hPa)
Pressure tendency: 0.04 inches (1.3 hPa) lower than three hours ago
ob: KILG 152051Z 05018G22KT 6SM BR OVC006 11/10 A3001 RMK AO2 SLP162 60001 T01060100 55013
cycle: 21

Station Type Date Time Source
KILG TAF 2018/12/15 20:27 UTC NOAA

TAF
AMD KILG 152024Z 1520/1618 04012G20KT 5SM -RA BR OVC005
FM152200 04010KT 4SM -RA BR OVC006
FM160600 04012G22KT 3SM RA OVC008
FM161200 04014G24KT 5SM -SHRA BR BKN007


Example: see airport list